Stokenchurch, United Kingdom
Current Conditions -  °F | °C
As of 3:50 AM on Friday 31 Oct 2014 (Local Time) from EGUB Reporting Station
Haze Haze  
Wind Chill: 59°   Ceiling: 700
Heat Index: 59°   Visibility: 2.5mi
Dew Point: 57°   Wind: 9mph
Humidity: 94%   Direction: 130°SE
Pressure: 30.03"   Gusts: NA
Location:  51.66°N, 0.9°W
Report Text: EGUB 310350Z 13008KT 4000 BR BKN007 15/14 Q1017 GRN
Loading
Personal Weather Stations






























Interactive Weather Map
Tropical Storm Tracking
New forecast layout! Learn more

10-Day Weather Forecast

Advertisements
Track Severe Weather on mobile